• Join FlightAware (Why Join?)
  • Login
  • US Flag 
09:18PM EDT


 

Airport Tracker/Info


-or-


 

Live Flight TrackerFlight Track Log ✈ N860BA ✈ 09-May-2013 ✈ KHOU - KCRP

Flight Track Log - Related Links

Times and Time Zones

All times are in EDT time to prevent confusion due to time zone crossing. See the N860BA flight status page for this flight to view local times or setup timezone preferences in your user account.

Time Position Orientation Groundspeed Altitude Reporting Facility
EDT Latitude Longitude Course Direction KTS MPH feet Rate Location/Type
08:30AM 29.6311 -95.2656 163° South 155 178 600  Level Houston Center
08:31AM 29.5797 -95.2469 163° South 222 255 2,800 2,760 Climbing Houston Center
08:32AM 29.5131 -95.2367 172° South 236 272 6,300 3,300 Climbing Houston Center
08:33AM 29.4644 -95.2808 218° Southwest 234 269 9,400 2,760 Climbing Houston Center
08:34AM 29.4189 -95.3458 231° Southwest 233 268 12,300 2,220 Climbing Houston Center
08:35AM 29.3761 -95.4083 232° Southwest 243 280 14,300 1,740 Climbing Houston Center
08:36AM 29.3294 -95.4783 233° Southwest 270 311 15,900 780 Climbing Houston Center
08:37AM 29.2772 -95.5544 232° Southwest 298 343 15,900  Level Houston Center
08:38AM 29.2172 -95.6353 230° Southwest 327 376 15,900  Level Houston Center
08:39AM 29.1514 -95.7217 229° Southwest 353 406 15,900  Level Houston Center
08:40AM 29.0850 -95.8111 230° Southwest 366 421 15,900  Level Houston Center
08:41AM 29.0011 -95.9208 229° Southwest 380 437 15,900  Level Houston Center
08:42AM 28.9372 -96.0056 229° Southwest 383 441 15,900  Level Houston Center
08:43AM 28.8672 -96.0986 229° Southwest 385 443 15,900  Level Houston Center
08:44AM 28.7969 -96.1911 229° Southwest 386 444 15,900  Level Houston Center
08:45AM 28.7258 -96.2853 229° Southwest 388 447 15,900  Level Houston Center
08:46AM 28.6419 -96.3944 229° Southwest 383 441 15,900  Level Houston Center
08:47AM 28.5700 -96.4869 228° Southwest 388 447 15,900  Level Houston Center
08:48AM 28.4992 -96.5808 229° Southwest 389 448 15,900 -660 Level Houston Center
08:49AM 28.4269 -96.6764 229° Southwest 395 455 14,600 -1,380 Descending Houston Center
08:50AM 28.3792 -96.7358 228° Southwest 414 476 13,800 -1,260 Descending Houston Center
08:50AM 28.3500 -96.7758 230° Southwest 412 474 13,300 -1,200 Descending Houston Center
08:51AM 28.2983 -96.8406 228° Southwest 427 491 12,500 -1,320 Descending Houston Center
08:51AM 28.2719 -96.8758 230° Southwest 421 484 12,000 -1,440 Descending Houston Center
08:52AM 28.2303 -96.9478 237° Southwest 379 436 11,100 -1,260 Descending Houston Center
08:52AM 28.2158 -96.9753 239° Southwest 381 438 10,700 -1,380 Descending Houston Center
08:53AM 28.1817 -97.0403 239° Southwest 306 352 9,700 -1,380 Descending Houston Center
08:53AM 28.1708 -97.0603 238° Southwest 332 382 9,300 -1,200 Descending Houston Center
08:54AM 28.1439 -97.1167 242° Southwest 278 320 8,500 -1,500 Descending Houston Center
08:54AM 28.1253 -97.1544 241° Southwest 292 336 7,800 -1,320 Descending Houston Center
08:55AM 28.1094 -97.1858 240° Southwest 278 320 7,300 -1,200 Descending Houston Center
08:55AM 28.0883 -97.2328 243° Southwest 282 325 6,600 -1,320 Descending Houston Center
08:56AM 28.0725 -97.2692 244° Southwest 283 326 6,000 -1,380 Descending Houston Center
08:56AM 28.0539 -97.3100 243° Southwest 279 321 5,200 -1,380 Descending Houston Center
08:57AM 28.0389 -97.3475 246° West 265 305 4,600 -1,260 Descending Houston Center
08:57AM 28.0231 -97.3839 244° Southwest 265 305 3,900 -1,200 Descending Houston Center
08:58AM 28.0106 -97.4156 246° West 244 281 3,400 -900 Descending Houston Center
08:58AM 27.9978 -97.4569 251° West 259 298 3,000 -420 Descending Houston Center
08:59AM 27.9842 -97.4831 239° Southwest 228 262 3,000  Level Houston Center
08:59AM 27.9742 -97.5206 253° West 244 281 3,000  Level Houston Center
09:00AM 27.9608 -97.5408 233° Southwest 200 230 3,000 -120 Level Houston Center
09:00AM 27.9511 -97.5833 255° West 225 259 2,900  Descending Houston Center
09:01AM 27.9397 -97.5981 229° Southwest 192 221 3,000 -120 Climbing Houston Center
09:02AM 27.9217 -97.6292 237° Southwest 205 236 2,800 -960 Descending Houston Center
09:02AM 27.9017 -97.6342 192° South 177 204 2,000 -540 Descending Houston Center
09:03AM 27.8628 -97.6064 148° Southeast 173 199 2,100 -240 Climbing Houston Center
09:04AM 27.8344 -97.5769 137° Southeast 123 142 1,600 -540 Descending Houston Center
09:05AM 27.8131 -97.5539 136° Southeast 100 115 1,100 -600 Descending Houston Center
09:06AM 27.7869 -97.5267 137° Southeast 119 137 400 -720 Descending Houston Center